Terminal Aerodrome Forecast
Issued by NWS Charleston, SC

Home | Current Version | Previous Version | Text Only | Print | Product List | Glossary On
Versions: 1 2 3 4 5 6 7 8 9 10 11 12 13 14 15 16 17 18 19 20 21 22
147
FTUS42 KCHS 261120
TAFCHS
TAF
KCHS 261120Z 2612/2712 24003KT P6SM FEW070 FEW250
     FM261400 24007KT P6SM FEW200
     FM262000 20011KT P6SM FEW200
     FM270200 20006KT P6SM FEW250=

USA.gov is the U.S. government's official web portal to all federal, state and local government web resources and services.